Time;durP1;ratioP1;P1;durP2;ratioP2;P2;SDS_P1;SDS_P2;PMS_P1;PMS_P2;Temp;Humidity;BMP_temperature;BMP_pressure;BME280_temperature;BME280_humidity;BME280_pressure;Samples;Min_cycle;Max_cycle;Signal;HPM_P1;HPM_P2
2021/03/04 00:01:20;;;;;;;48.75;25.35;;;9.30;99.90;;;;;;5042925;28;20028;-60
2021/03/04 00:03:45;;;;;;;52.28;25.42;;;9.30;99.90;;;;;;5048168;28;20036;-60
2021/03/04 00:06:11;;;;;;;39.00;22.67;;;9.00;99.90;;;;;;5041926;28;20033;-60
2021/03/04 00:08:36;;;;;;;50.80;24.73;;;9.10;99.90;;;;;;5047855;28;20072;-60
2021/03/04 00:11:02;;;;;;;51.58;25.75;;;9.00;99.90;;;;;;5042679;28;20056;-60
2021/03/04 00:13:28;;;;;;;46.25;25.05;;;9.10;99.90;;;;;;5048150;28;20035;-60
2021/03/04 00:15:54;;;;;;;38.47;21.55;;;9.00;99.90;;;;;;5042586;28;20025;-60
2021/03/04 00:18:20;;;;;;;32.92;19.33;;;9.10;99.90;;;;;;5048249;28;20509;-60
2021/03/04 00:20:46;;;;;;;33.88;20.73;;;8.90;99.90;;;;;;5040893;28;20025;-60
2021/03/04 00:23:12;;;;;;;39.65;21.52;;;8.90;99.90;;;;;;5049729;28;20025;-60
2021/03/04 00:25:37;;;;;;;43.65;20.38;;;8.80;99.90;;;;;;5040373;28;20029;-60
2021/03/04 00:28:04;;;;;;;32.83;17.77;;;8.70;99.90;;;;;;5049955;28;20163;-60
2021/03/04 00:30:30;;;;;;;34.53;20.30;;;8.70;99.90;;;;;;5040196;28;20017;-60
2021/03/04 00:32:56;;;;;;;33.25;19.17;;;8.60;99.90;;;;;;5050909;28;20052;-60
2021/03/04 00:35:23;;;;;;;38.30;21.33;;;8.70;99.90;;;;;;5035493;28;20368;-60
2021/03/04 00:37:49;;;;;;;35.55;21.48;;;8.60;99.90;;;;;;5051079;28;20645;-60
2021/03/04 00:40:18;;;;;;;36.65;22.55;;;8.70;99.90;;;;;;5038577;28;20037;-60
2021/03/04 00:42:44;;;;;;;54.75;27.13;;;8.90;99.90;;;;;;5050998;28;20021;-60
2021/03/04 00:45:12;;;;;;;45.17;23.88;;;8.70;99.90;;;;;;5042827;28;20033;-60
2021/03/04 00:47:39;;;;;;;36.85;21.23;;;8.90;99.90;;;;;;5031127;28;20045;-60
2021/03/04 00:50:06;;;;;;;42.35;22.35;;;8.90;99.90;;;;;;5035594;28;20586;-60
2021/03/04 00:52:32;;;;;;;41.15;23.10;;;8.80;99.90;;;;;;5050221;28;20063;-60
2021/03/04 00:54:57;;;;;;;42.58;24.45;;;8.90;99.90;;;;;;5038954;28;20037;-60
2021/03/04 00:57:23;;;;;;;52.65;25.33;;;8.80;99.90;;;;;;5050042;28;20495;-60
2021/03/04 00:59:49;;;;;;;41.30;21.73;;;8.80;99.90;;;;;;5040353;28;20120;-60
2021/03/04 01:02:15;;;;;;;36.25;18.10;;;8.60;99.90;;;;;;5049044;28;20478;-60
2021/03/04 01:04:41;;;;;;;29.35;16.70;;;8.50;99.90;;;;;;5041061;28;20041;-60
2021/03/04 01:07:06;;;;;;;22.15;15.13;;;8.50;99.90;;;;;;5046537;28;20448;-60
2021/03/04 01:09:32;;;;;;;22.15;14.43;;;8.40;99.90;;;;;;5042732;28;20036;-60
2021/03/04 01:11:58;;;;;;;23.30;16.15;;;8.40;99.90;;;;;;5046122;28;20025;-60
2021/03/04 01:14:24;;;;;;;36.15;20.88;;;8.40;99.90;;;;;;5043506;28;20028;-60
2021/03/04 01:16:49;;;;;;;24.45;13.73;;;8.60;99.90;;;;;;5044915;28;20017;-60
2021/03/04 01:19:15;;;;;;;20.50;14.43;;;8.40;99.90;;;;;;5044475;28;20442;-60
2021/03/04 01:21:40;;;;;;;19.83;15.23;;;8.30;99.90;;;;;;5042936;28;20543;-60
2021/03/04 01:24:07;;;;;;;18.85;13.60;;;8.10;99.90;;;;;;5045635;28;20040;-60
2021/03/04 01:26:33;;;;;;;29.67;17.92;;;8.10;99.90;;;;;;5042215;28;20066;-60
2021/03/04 01:28:59;;;;;;;31.48;19.95;;;8.20;99.90;;;;;;5046370;28;20028;-60
2021/03/04 01:31:24;;;;;;;41.38;22.52;;;8.20;99.90;;;;;;5041097;28;20551;-60
2021/03/04 01:33:51;;;;;;;42.53;21.88;;;8.30;99.90;;;;;;5046566;28;20059;-60
2021/03/04 01:36:16;;;;;;;39.72;24.63;;;8.30;99.90;;;;;;5040125;28;20604;-60
2021/03/04 01:38:42;;;;;;;37.33;22.15;;;8.60;99.90;;;;;;5046307;28;20029;-61
2021/03/04 01:41:08;;;;;;;32.30;19.00;;;8.30;99.90;;;;;;5040766;28;20482;-61
2021/03/04 01:43:33;;;;;;;31.48;19.73;;;8.20;99.90;;;;;;5046707;28;20442;-60
2021/03/04 01:45:59;;;;;;;38.95;22.00;;;8.20;99.90;;;;;;5038332;28;20426;-61
2021/03/04 01:48:25;;;;;;;39.50;23.23;;;8.30;99.90;;;;;;5030812;28;20033;-60
2021/03/04 01:50:51;;;;;;;44.35;23.00;;;8.20;99.90;;;;;;5039285;28;20024;-61
2021/03/04 01:53:17;;;;;;;29.63;19.15;;;8.20;99.90;;;;;;5037978;28;20434;-61
2021/03/04 01:55:44;;;;;;;31.58;20.92;;;8.10;99.90;;;;;;5039222;28;20026;-61
2021/03/04 01:58:10;;;;;;;43.70;21.65;;;8.20;99.90;;;;;;5048424;28;20528;-61
2021/03/04 02:00:35;;;;;;;34.08;20.55;;;8.10;99.90;;;;;;5037423;28;20051;-61
2021/03/04 02:03:01;;;;;;;35.10;20.70;;;8.00;99.90;;;;;;5048839;28;20603;-61
2021/03/04 02:05:27;;;;;;;30.13;17.55;;;8.10;99.90;;;;;;5037098;28;20045;-61
2021/03/04 02:08:06;;;;;;;29.55;18.55;;;7.90;99.90;;;;;;5049540;28;20044;-61
2021/03/04 02:11:06;;;;;;;15.65;11.68;;;7.80;99.90;;;;;;5039511;28;20079;-61
2021/03/04 02:13:47;;;;;;;13.60;9.43;;;7.80;99.90;;;;;;5030442;28;20031;-61
2021/03/04 02:16:22;;;;;;;13.32;9.27;;;7.70;99.90;;;;;;5040350;28;20112;-61
2021/03/04 02:18:59;;;;;;;16.17;11.93;;;7.70;99.90;;;;;;5045781;28;20644;-61
2021/03/04 02:21:37;;;;;;;15.07;12.25;;;7.80;99.90;;;;;;5039693;28;20252;-61
2021/03/04 02:24:08;;;;;;;21.83;13.55;;;7.60;99.90;;;;;;5039581;28;20091;-61
2021/03/04 02:26:43;;;;;;;19.35;15.07;;;7.60;99.90;;;;;;5036956;28;20033;-61
2021/03/04 02:29:13;;;;;;;19.60;15.52;;;7.50;99.90;;;;;;5034270;28;20048;-61
2021/03/04 02:31:43;;;;;;;23.52;14.88;;;7.40;99.90;;;;;;5042292;28;20104;-61
2021/03/04 02:34:10;;;;;;;24.73;15.30;;;7.50;99.90;;;;;;5044332;28;20039;-61
2021/03/04 02:36:39;;;;;;;13.57;12.32;;;7.40;99.90;;;;;;5040964;28;20025;-61
2021/03/04 02:39:07;;;;;;;36.55;20.27;;;7.40;99.90;;;;;;5044753;28;20029;-61
2021/03/04 02:41:35;;;;;;;18.10;12.77;;;7.30;99.90;;;;;;5040933;28;20048;-61
2021/03/04 02:44:06;;;;;;;36.80;19.90;;;7.20;99.90;;;;;;5042014;28;20032;-61
2021/03/04 02:46:34;;;;;;;42.40;24.02;;;7.30;99.90;;;;;;5028149;28;20113;-61
2021/03/04 02:49:01;;;;;;;41.33;26.17;;;7.10;99.90;;;;;;5034064;28;20538;-61
2021/03/04 02:51:28;;;;;;;37.10;24.23;;;7.10;99.90;;;;;;5031025;28;20124;-61
2021/03/04 02:53:55;;;;;;;66.05;39.10;;;7.30;99.90;;;;;;5045423;28;20425;-61
2021/03/04 02:56:25;;;;;;;62.25;38.90;;;7.40;99.90;;;;;;5039836;28;20029;-61
2021/03/04 02:58:55;;;;;;;36.20;23.88;;;7.40;99.90;;;;;;5045397;28;20025;-61
2021/03/04 03:01:22;;;;;;;40.25;24.10;;;7.60;99.90;;;;;;5040217;28;20040;-61
2021/03/04 03:03:50;;;;;;;43.78;24.60;;;7.60;99.90;;;;;;5045289;28;20030;-61
2021/03/04 03:06:17;;;;;;;45.85;27.10;;;7.80;99.90;;;;;;5039101;28;20040;-60
2021/03/04 03:08:45;;;;;;;40.72;24.67;;;7.90;99.90;;;;;;5045132;28;20487;-61
2021/03/04 03:11:13;;;;;;;42.83;25.83;;;7.80;99.90;;;;;;5040044;28;20021;-61
2021/03/04 03:13:40;;;;;;;40.80;25.08;;;7.90;99.90;;;;;;5048864;28;20155;-62
2021/03/04 03:16:06;;;;;;;42.05;25.40;;;7.90;99.90;;;;;;5042404;28;20082;-61
2021/03/04 03:18:31;;;;;;;41.88;24.35;;;8.00;99.90;;;;;;5049167;28;20413;-61
2021/03/04 03:20:57;;;;;;;40.17;25.27;;;8.00;99.90;;;;;;5042907;28;20029;-61
2021/03/04 03:23:23;;;;;;;46.10;24.15;;;7.90;99.90;;;;;;5050035;28;20044;-61
2021/03/04 03:25:48;;;;;;;37.22;22.58;;;8.00;99.90;;;;;;5042654;28;20032;-60
2021/03/04 03:28:14;;;;;;;40.92;23.55;;;8.10;99.90;;;;;;5050689;28;20517;-61
2021/03/04 03:30:40;;;;;;;42.80;24.10;;;8.00;99.90;;;;;;5041369;28;20024;-61
2021/03/04 03:33:08;;;;;;;38.20;24.10;;;8.00;99.90;;;;;;5051137;28;20029;-61
2021/03/04 03:35:36;;;;;;;41.72;24.13;;;8.00;99.90;;;;;;5041842;28;20026;-60
2021/03/04 03:38:03;;;;;;;37.72;23.08;;;8.10;99.90;;;;;;5032229;28;20109;-60
2021/03/04 03:40:31;;;;;;;36.83;22.83;;;8.10;99.90;;;;;;5040082;28;20032;-61
2021/03/04 03:42:58;;;;;;;42.42;23.10;;;8.10;99.90;;;;;;5051052;28;20108;-60
2021/03/04 03:45:30;;;;;;;38.70;22.98;;;8.20;99.90;;;;;;5039355;28;20517;-61
2021/03/04 03:47:56;;;;;;;42.75;22.48;;;8.10;99.90;;;;;;5052148;28;20163;-61
2021/03/04 03:50:23;;;;;;;43.05;22.70;;;8.10;99.90;;;;;;5038765;28;20025;-61
2021/03/04 03:52:51;;;;;;;33.05;22.45;;;8.10;99.90;;;;;;5051893;28;20402;-61
2021/03/04 03:55:18;;;;;;;41.17;23.92;;;8.10;99.90;;;;;;5039502;28;20064;-61
2021/03/04 03:57:44;;;;;;;38.10;22.63;;;8.20;99.90;;;;;;5051727;28;20485;-61
2021/03/04 04:00:12;;;;;;;35.38;22.75;;;8.30;99.90;;;;;;5039241;28;20022;-60
2021/03/04 04:02:39;;;;;;;39.25;24.15;;;8.20;99.90;;;;;;5051939;28;20032;-61
2021/03/04 04:05:06;;;;;;;42.45;23.95;;;8.20;99.90;;;;;;5039348;28;20045;-61
2021/03/04 04:07:33;;;;;;;46.38;25.17;;;8.30;99.90;;;;;;5011314;28;20240;-60
2021/03/04 04:10:00;;;;;;;40.78;25.05;;;8.20;99.90;;;;;;5033469;28;20070;-61
2021/03/04 04:12:26;;;;;;;40.03;24.73;;;8.20;99.90;;;;;;5050842;28;20491;-61
2021/03/04 04:14:52;;;;;;;49.08;26.98;;;8.20;99.90;;;;;;5041311;28;20104;-61
2021/03/04 04:17:20;;;;;;;39.78;25.17;;;8.30;99.90;;;;;;5049470;28;20029;-61
2021/03/04 04:19:45;;;;;;;34.70;24.85;;;8.20;99.90;;;;;;5042157;28;20118;-61
2021/03/04 04:22:12;;;;;;;43.60;25.88;;;8.20;99.90;;;;;;5047709;28;20156;-61
2021/03/04 04:24:38;;;;;;;42.53;24.27;;;8.30;99.90;;;;;;5041965;28;20064;-61
2021/03/04 04:27:05;;;;;;;44.70;26.50;;;8.20;99.90;;;;;;5047344;28;20031;-61
2021/03/04 04:29:31;;;;;;;45.65;25.65;;;8.30;99.90;;;;;;5040272;28;20021;-61
2021/03/04 04:31:57;;;;;;;42.45;25.48;;;8.20;99.90;;;;;;5046550;28;20048;-61
2021/03/04 04:34:23;;;;;;;40.28;25.35;;;8.30;99.90;;;;;;5047573;28;20013;-61
2021/03/04 04:36:48;;;;;;;48.65;25.35;;;8.20;99.90;;;;;;5036719;28;20525;-61
2021/03/04 04:39:14;;;;;;;47.67;26.42;;;8.30;99.90;;;;;;5036080;28;20032;-61
2021/03/04 04:41:40;;;;;;;45.80;26.17;;;8.40;99.90;;;;;;5043920;28;20017;-61
2021/03/04 04:44:06;;;;;;;48.78;25.85;;;8.40;99.90;;;;;;5046753;28;20509;-61
2021/03/04 04:46:31;;;;;;;44.85;27.83;;;8.40;99.90;;;;;;5042636;28;20028;-61
2021/03/04 04:48:57;;;;;;;53.33;27.52;;;8.20;99.90;;;;;;5047272;28;20037;-61
2021/03/04 04:51:23;;;;;;;48.15;27.55;;;8.30;99.90;;;;;;5041451;28;20099;-60
2021/03/04 04:53:49;;;;;;;41.55;25.88;;;8.20;99.90;;;;;;5047249;28;20033;-61
2021/03/04 04:56:14;;;;;;;45.67;26.17;;;8.30;99.90;;;;;;5042005;28;20029;-61
2021/03/04 04:58:40;;;;;;;42.85;25.70;;;8.40;99.90;;;;;;5047062;28;20508;-61
2021/03/04 05:01:06;;;;;;;46.75;26.52;;;8.30;99.90;;;;;;5041711;28;20029;-61
2021/03/04 05:03:32;;;;;;;42.60;25.65;;;8.20;99.90;;;;;;5047141;28;20033;-61
2021/03/04 05:05:57;;;;;;;42.13;27.15;;;8.10;99.90;;;;;;5040821;28;20452;-61
2021/03/04 05:08:23;;;;;;;43.35;27.63;;;8.10;99.90;;;;;;5048007;28;20098;-61
2021/03/04 05:10:49;;;;;;;48.53;25.77;;;8.10;99.90;;;;;;5040543;28;20017;-61
2021/03/04 05:13:15;;;;;;;43.35;25.67;;;8.20;99.90;;;;;;5049071;28;20082;-60
2021/03/04 05:15:41;;;;;;;43.65;26.60;;;8.30;99.90;;;;;;5037091;28;20511;-61
2021/03/04 05:18:06;;;;;;;36.83;25.52;;;8.10;99.90;;;;;;5049369;28;20025;-61
2021/03/04 05:20:32;;;;;;;43.10;25.40;;;8.20;99.90;;;;;;5038506;28;20397;-61
2021/03/04 05:22:58;;;;;;;38.63;24.55;;;8.20;99.90;;;;;;5050204;28;20139;-60
2021/03/04 05:25:24;;;;;;;40.33;24.10;;;8.20;99.90;;;;;;5037770;28;20045;-60
2021/03/04 05:27:49;;;;;;;41.45;25.73;;;8.10;99.90;;;;;;5032006;28;20042;-60
2021/03/04 05:30:15;;;;;;;41.78;24.52;;;8.10;99.90;;;;;;5036268;28;20512;-61
2021/03/04 05:32:41;;;;;;;39.90;23.73;;;8.10;99.90;;;;;;5033153;28;20391;-61
2021/03/04 05:35:07;;;;;;;39.90;24.85;;;8.00;99.90;;;;;;5042965;28;20040;-61
2021/03/04 05:37:33;;;;;;;39.65;24.63;;;7.90;99.90;;;;;;5029397;28;20029;-61
2021/03/04 05:39:59;;;;;;;30.13;19.70;;;7.90;99.90;;;;;;5035129;28;20037;-61
2021/03/04 05:42:27;;;;;;;27.05;19.85;;;7.80;99.90;;;;;;5048622;28;20048;-61
2021/03/04 05:44:53;;;;;;;31.90;20.83;;;7.80;99.90;;;;;;5043197;28;20346;-61
2021/03/04 05:47:19;;;;;;;28.08;20.10;;;7.80;99.90;;;;;;5031669;28;20037;-61
2021/03/04 05:49:49;;;;;;;26.27;18.90;;;7.70;99.90;;;;;;5035663;28;20030;-60
2021/03/04 05:52:17;;;;;;;30.38;19.95;;;7.70;99.90;;;;;;5043218;28;20025;-60
2021/03/04 05:54:45;;;;;;;30.27;20.13;;;7.70;99.90;;;;;;5035154;28;20038;-61
2021/03/04 05:57:12;;;;;;;31.83;20.23;;;7.70;99.90;;;;;;5029508;28;20017;-61
2021/03/04 05:59:40;;;;;;;26.83;20.88;;;7.60;99.90;;;;;;5035049;28;20083;-61
2021/03/04 06:02:07;;;;;;;36.63;22.15;;;7.70;99.90;;;;;;5045633;28;20051;-61
2021/03/04 06:04:33;;;;;;;41.35;23.88;;;7.80;99.90;;;;;;5041847;28;20053;-61
2021/03/04 06:06:59;;;;;;;36.00;24.42;;;7.80;99.90;;;;;;5043630;28;20025;-61
2021/03/04 06:09:26;;;;;;;37.13;21.05;;;7.90;99.90;;;;;;5043368;28;20489;-61
2021/03/04 06:11:52;;;;;;;31.80;18.83;;;7.80;99.90;;;;;;5043391;28;20033;-61
2021/03/04 06:14:18;;;;;;;26.80;20.67;;;7.80;99.90;;;;;;5039717;28;20033;-62
2021/03/04 06:16:44;;;;;;;34.65;21.30;;;8.70;99.90;;;;;;5029536;28;20510;-62
2021/03/04 06:19:19;;;;;;;34.70;22.52;;;8.30;99.90;;;;;;5032879;28;20022;-62
2021/03/04 06:21:55;;;;;;;39.45;21.75;;;8.10;99.90;;;;;;5029267;28;20030;-62
2021/03/04 06:24:21;;;;;;;37.70;23.77;;;8.00;99.90;;;;;;5030778;28;20057;-62
2021/03/04 06:26:54;;;;;;;40.00;24.30;;;8.10;99.90;;;;;;5030366;28;20064;-62
2021/03/04 06:29:22;;;;;;;43.00;23.50;;;7.80;99.90;;;;;;5030672;28;20112;-62
2021/03/04 06:32:04;;;;;;;37.83;23.08;;;7.90;99.90;;;;;;5026741;28;20025;-63
2021/03/04 06:34:31;;;;;;;37.53;23.85;;;7.90;99.90;;;;;;5030183;28;20097;-62
2021/03/04 06:37:00;;;;;;;36.25;24.00;;;7.80;99.90;;;;;;5028940;28;20048;-62
2021/03/04 06:39:38;;;;;;;39.30;25.40;;;7.50;99.90;;;;;;5028013;28;20514;-62
2021/03/04 06:42:04;;;;;;;36.60;25.17;;;7.60;99.90;;;;;;5029076;28;20047;-62
2021/03/04 06:44:43;;;;;;;39.20;24.27;;;7.70;99.90;;;;;;5029623;28;20475;-62
2021/03/04 06:47:11;;;;;;;34.35;23.63;;;7.70;99.90;;;;;;5029094;28;20053;-62
2021/03/04 06:49:38;;;;;;;35.45;23.83;;;7.60;99.90;;;;;;5033925;28;20022;-62
2021/03/04 06:52:04;;;;;;;32.78;22.80;;;7.70;99.90;;;;;;5030474;28;20025;-62
2021/03/04 06:54:30;;;;;;;42.15;24.83;;;7.70;99.90;;;;;;5034211;28;20024;-62
2021/03/04 06:56:56;;;;;;;40.42;25.25;;;7.80;99.90;;;;;;5033661;28;20510;-62
2021/03/04 06:59:21;;;;;;;39.38;25.77;;;7.80;99.90;;;;;;5038020;28;20029;-62
2021/03/04 07:01:47;;;;;;;44.10;25.60;;;7.80;99.90;;;;;;5046500;28;20029;-62
2021/03/04 07:04:15;;;;;;;46.30;25.73;;;7.70;99.90;;;;;;5047926;28;20775;-61
2021/03/04 07:06:45;;;;;;;38.05;25.58;;;7.80;99.90;;;;;;5044711;28;20036;-62
2021/03/04 07:09:12;;;;;;;42.20;24.77;;;7.90;99.90;;;;;;5048271;28;20120;-62
2021/03/04 07:11:38;;;;;;;49.33;26.75;;;7.90;99.90;;;;;;5044954;28;20021;-62
2021/03/04 07:14:06;;;;;;;48.95;27.17;;;7.70;99.90;;;;;;5049108;28;20073;-62
2021/03/04 07:16:38;;;;;;;53.70;26.70;;;7.70;99.90;;;;;;5035557;28;20041;-67
2021/03/04 07:19:08;;;;;;;41.83;27.08;;;7.60;99.90;;;;;;5047099;28;20045;-67
2021/03/04 07:21:40;;;;;;;38.05;25.05;;;7.60;99.90;;;;;;5030824;28;20029;-67
2021/03/04 07:24:06;;;;;;;44.13;26.00;;;7.80;99.90;;;;;;5037311;28;20401;-62
2021/03/04 07:26:33;;;;;;;47.38;27.70;;;7.80;99.90;;;;;;5032637;28;20021;-63
2021/03/04 07:29:05;;;;;;;43.25;28.60;;;7.70;99.90;;;;;;5034549;28;20033;-63
2021/03/04 07:31:31;;;;;;;46.42;27.38;;;7.70;99.90;;;;;;5031703;28;20048;-62
2021/03/04 07:33:57;;;;;;;39.47;25.63;;;7.80;99.90;;;;;;5034641;28;20047;-62
2021/03/04 07:36:24;;;;;;;49.33;26.52;;;8.00;99.90;;;;;;5032777;28;20018;-63
2021/03/04 07:39:08;;;;;;;43.03;26.55;;;8.10;99.90;;;;;;5033924;28;20379;-63
2021/03/04 07:41:45;;;;;;;46.58;28.70;;;8.20;99.90;;;;;;5031525;28;20052;-62
2021/03/04 07:44:23;;;;;;;51.15;27.30;;;8.30;99.90;;;;;;5035324;28;20127;-63
2021/03/04 07:46:59;;;;;;;37.58;26.00;;;8.30;99.90;;;;;;5028882;28;20029;-63
2021/03/04 07:49:35;;;;;;;53.55;27.90;;;8.50;99.90;;;;;;5032726;28;20030;-62
2021/03/04 07:52:24;;;;;;;42.65;25.50;;;8.30;99.90;;;;;;5027659;28;20034;-62
2021/03/04 07:54:52;;;;;;;42.83;26.75;;;8.50;99.90;;;;;;5035347;28;20057;-62
2021/03/04 07:57:19;;;;;;;42.20;25.73;;;8.40;99.90;;;;;;5031694;28;20025;-63
2021/03/04 07:59:48;;;;;;;47.55;27.17;;;8.50;99.90;;;;;;5037271;28;20078;-62
2021/03/04 08:02:39;;;;;;;36.95;24.52;;;8.50;99.90;;;;;;5048930;28;20530;-64
2021/03/04 08:05:18;;;;;;;39.05;26.00;;;8.80;99.90;;;;;;5040003;28;20084;-62
2021/03/04 08:07:49;;;;;;;40.55;24.20;;;9.00;99.90;;;;;;5012130;28;20502;-62
2021/03/04 08:10:22;;;;;;;35.08;24.65;;;8.90;99.90;;;;;;5034587;28;20715;-62
2021/03/04 08:12:49;;;;;;;31.35;22.98;;;9.10;99.90;;;;;;5031574;28;20072;-62
2021/03/04 08:15:16;;;;;;;36.13;23.23;;;9.80;99.90;;;;;;5037111;28;20072;-62
2021/03/04 08:17:42;;;;;;;33.97;23.63;;;9.40;99.90;;;;;;5032365;28;20037;-62
2021/03/04 08:20:16;;;;;;;27.20;17.55;;;9.10;99.90;;;;;;5036387;28;20033;-63
2021/03/04 08:22:50;;;;;;;42.97;23.65;;;10.40;99.90;;;;;;5011487;28;20633;-62
2021/03/04 08:25:23;;;;;;;43.05;23.58;;;10.00;99.90;;;;;;5035497;28;20076;-59
2021/03/04 08:27:50;;;;;;;37.55;23.15;;;9.50;99.90;;;;;;5051336;28;20036;-61
2021/03/04 08:30:32;;;;;;;40.45;23.80;;;9.50;99.90;;;;;;5038706;28;20036;-60
2021/03/04 08:33:04;;;;;;;39.13;24.20;;;9.50;99.90;;;;;;5051479;28;20040;-61
2021/03/04 08:35:33;;;;;;;37.65;23.60;;;9.20;99.90;;;;;;5043984;28;20064;-61
2021/03/04 08:38:11;;;;;;;43.60;25.45;;;9.30;99.90;;;;;;5031144;28;20018;-61
2021/03/04 08:40:50;;;;;;;41.53;24.77;;;9.50;99.90;;;;;;5041111;28;20036;-61
2021/03/04 08:43:18;;;;;;;37.90;23.52;;;9.60;99.90;;;;;;5031346;28;20041;-60
2021/03/04 08:45:49;;;;;;;43.70;22.80;;;9.80;99.90;;;;;;5040074;28;20043;-60
2021/03/04 08:48:15;;;;;;;44.22;22.67;;;9.80;99.90;;;;;;5049641;28;20048;-60
2021/03/04 08:50:44;;;;;;;37.83;19.92;;;9.90;99.90;;;;;;5039074;28;20074;-57
2021/03/04 08:53:14;;;;;;;29.45;15.80;;;10.10;99.90;;;;;;5049462;28;20059;-60
2021/03/04 08:55:56;;;;;;;27.33;16.65;;;11.70;99.90;;;;;;5036123;28;20029;-60
2021/03/04 08:58:23;;;;;;;34.22;17.65;;;11.90;99.90;;;;;;5049066;28;20513;-60
2021/03/04 09:00:56;;;;;;;31.27;19.13;;;12.10;99.90;;;;;;5040354;28;20021;-63
2021/03/04 09:03:24;;;;;;;30.73;17.98;;;11.90;99.90;;;;;;5048020;28;20033;-63
2021/03/04 09:06:10;;;;;;;37.90;21.20;;;12.20;99.90;;;;;;5033530;28;20085;-59
2021/03/04 09:08:37;;;;;;;;;;;11.10;99.90;;;;;;5031569;28;20497;-58
2021/03/04 09:11:05;;;;;;;33.80;15.63;;;10.90;99.90;;;;;;5041150;28;19940;-63
2021/03/04 09:13:32;;;;;;;36.60;22.13;;;11.50;99.90;;;;;;5036442;28;20456;-63
2021/03/04 09:16:04;;;;;;;32.47;20.92;;;11.20;99.90;;;;;;5040836;28;20021;-63
2021/03/04 09:18:30;;;;;;;33.70;22.02;;;11.00;99.90;;;;;;5046856;28;20085;-63
2021/03/04 09:20:57;;;;;;;43.60;21.25;;;11.10;99.90;;;;;;5033374;28;20021;-63
2021/03/04 09:23:24;;;;;;;44.83;22.05;;;11.10;99.90;;;;;;5030344;28;20022;-63
2021/03/04 09:25:57;;;;;;;40.90;22.63;;;11.10;99.90;;;;;;5032361;28;20036;-63
2021/03/04 09:28:23;;;;;;;36.83;21.75;;;11.10;99.90;;;;;;5028027;28;20555;-64
2021/03/04 09:30:49;;;;;;;39.03;20.48;;;11.30;99.90;;;;;;5029972;28;20025;-63
2021/03/04 09:33:19;;;;;;;34.92;18.23;;;11.40;99.90;;;;;;5029827;28;20097;-63
2021/03/04 09:36:02;;;;;;;58.83;21.48;;;11.60;99.90;;;;;;5032623;28;20091;-64
2021/03/04 09:38:30;;;;;;;51.20;19.90;;;11.80;99.90;;;;;;5030212;28;20032;-63
2021/03/04 09:41:07;;;;;;;36.97;17.80;;;12.00;99.90;;;;;;5029752;28;20052;-63
2021/03/04 09:43:45;;;;;;;44.30;17.80;;;12.00;99.90;;;;;;5030373;28;20040;-63
2021/03/04 09:46:31;;;;;;;39.78;17.27;;;12.10;99.90;;;;;;5034238;28;20035;-63
2021/03/04 09:49:08;;;;;;;46.17;18.23;;;11.90;99.90;;;;;;5032404;28;20068;-63
2021/03/04 09:51:36;;;;;;;37.47;16.77;;;12.10;99.90;;;;;;5028076;28;20018;-63
2021/03/04 09:54:02;;;;;;;33.25;17.00;;;12.20;99.90;;;;;;5031812;28;20025;-64
2021/03/04 09:56:27;;;;;;;33.78;17.52;;;12.20;99.90;;;;;;5032358;28;20552;-63
2021/03/04 09:58:53;;;;;;;36.13;16.05;;;12.40;99.90;;;;;;5033762;28;20037;-63
2021/03/04 10:01:38;;;;;;;35.13;15.52;;;12.50;99.90;;;;;;5038482;28;20540;-63
2021/03/04 10:04:07;;;;;;;33.90;14.93;;;12.80;99.90;;;;;;5044849;28;20703;-60
2021/03/04 10:06:39;;;;;;;36.53;15.05;;;12.70;99.90;;;;;;5033451;28;20021;-60
2021/03/04 10:09:07;;;;;;;31.80;14.40;;;12.80;99.90;;;;;;5029537;28;20529;-62
2021/03/04 10:11:38;;;;;;;36.67;14.15;;;13.20;99.90;;;;;;5028818;28;20478;-63
2021/03/04 10:14:11;;;;;;;35.85;14.25;;;13.30;99.90;;;;;;5030888;28;20078;-62
2021/03/04 10:16:37;;;;;;;29.60;14.55;;;13.10;99.90;;;;;;5023000;28;20017;-63
2021/03/04 10:19:05;;;;;;;33.60;15.07;;;13.00;99.90;;;;;;5033923;28;20032;-63
2021/03/04 10:21:31;;;;;;;30.63;14.57;;;13.50;99.90;;;;;;5038737;28;20028;-62
2021/03/04 10:23:57;;;;;;;32.28;14.60;;;13.50;99.90;;;;;;5035642;28;20037;-63
2021/03/04 10:26:22;;;;;;;32.25;16.10;;;13.60;99.90;;;;;;5048732;28;20040;-63
2021/03/04 10:28:48;;;;;;;25.20;14.45;;;13.30;99.90;;;;;;5045715;28;20075;-62
2021/03/04 10:31:14;;;;;;;23.80;13.85;;;13.70;99.90;;;;;;5039965;28;20056;-63
2021/03/04 10:33:40;;;;;;;38.80;15.02;;;14.00;99.90;;;;;;5045857;28;20017;-63
2021/03/04 10:36:06;;;;;;;36.47;14.77;;;14.10;99.90;;;;;;5040124;28;20416;-63
2021/03/04 10:38:31;;;;;;;27.67;14.35;;;13.90;99.90;;;;;;5030283;28;20104;-62
2021/03/04 10:40:57;;;;;;;31.15;14.20;;;14.20;99.90;;;;;;5038918;28;20028;-63
2021/03/04 10:43:23;;;;;;;29.13;13.40;;;14.50;99.90;;;;;;5043734;28;20029;-62
2021/03/04 10:45:48;;;;;;;31.63;13.73;;;14.80;99.90;;;;;;5035942;28;20025;-63
2021/03/04 10:48:14;;;;;;;34.45;14.95;;;14.80;99.90;;;;;;5034603;28;20120;-63
2021/03/04 10:50:40;;;;;;;31.55;13.85;;;15.00;99.90;;;;;;5037444;28;20108;-62
2021/03/04 10:53:06;;;;;;;25.42;13.77;;;14.70;99.90;;;;;;5042225;28;20072;-63
2021/03/04 10:55:32;;;;;;;28.55;12.38;;;14.90;99.90;;;;;;5035095;28;20040;-62
2021/03/04 10:57:57;;;;;;;27.50;13.25;;;15.30;99.90;;;;;;5048854;28;20048;-63
2021/03/04 11:00:24;;;;;;;26.85;12.75;;;15.50;99.90;;;;;;5036413;28;20627;-63
2021/03/04 11:02:49;;;;;;;26.17;12.50;;;15.20;99.90;;;;;;5049339;28;20021;-63
2021/03/04 11:05:15;;;;;;;31.98;12.82;;;15.40;99.90;;;;;;5039484;28;20052;-63
2021/03/04 11:07:41;;;;;;;36.15;14.07;;;15.10;99.90;;;;;;5029040;28;20112;-62
2021/03/04 11:10:09;;;;;;;30.88;12.63;;;15.30;99.90;;;;;;5034224;28;20514;-63
2021/03/04 11:12:35;;;;;;;34.22;13.43;;;15.60;99.90;;;;;;5048054;28;20021;-63
2021/03/04 11:15:00;;;;;;;30.48;12.20;;;15.70;99.90;;;;;;5038648;28;20029;-63
2021/03/04 11:17:26;;;;;;;27.73;13.73;;;16.10;99.90;;;;;;5046871;28;20108;-62
2021/03/04 11:19:52;;;;;;;29.13;13.30;;;16.00;99.90;;;;;;5039641;28;20470;-63
2021/03/04 11:22:18;;;;;;;27.65;12.93;;;15.90;99.90;;;;;;5026067;28;20652;-63
2021/03/04 11:24:46;;;;;;;28.13;12.25;;;16.00;99.90;;;;;;5031591;28;20041;-62
2021/03/04 11:27:14;;;;;;;34.95;12.63;;;16.30;99.90;;;;;;5045238;28;20394;-64
2021/03/04 11:29:40;;;;;;;25.80;11.82;;;16.50;99.90;;;;;;5038011;28;20429;-63
2021/03/04 11:32:06;;;;;;;37.83;12.90;;;16.20;99.90;;;;;;5044429;28;20044;-63
2021/03/04 11:34:32;;;;;;;28.48;12.13;;;16.30;99.90;;;;;;5047554;28;20485;-63
2021/03/04 11:36:57;;;;;;;37.03;13.05;;;16.40;99.90;;;;;;5038365;28;20025;-63
2021/03/04 11:39:23;;;;;;;33.08;12.52;;;16.00;99.90;;;;;;5038200;28;20517;-63
2021/03/04 11:41:49;;;;;;;33.53;12.43;;;16.40;99.90;;;;;;5039878;28;20029;-63
2021/03/04 11:44:14;;;;;;;27.55;11.88;;;16.30;99.90;;;;;;5034938;28;20037;-63
2021/03/04 11:46:41;;;;;;;32.13;12.75;;;17.00;99.90;;;;;;5035802;28;20026;-63
2021/03/04 11:49:07;;;;;;;29.23;12.02;;;17.10;99.90;;;;;;5034912;28;20503;-64
2021/03/04 11:51:33;;;;;;;32.72;11.82;;;16.90;99.90;;;;;;5032233;28;20037;-63
2021/03/04 11:53:59;;;;;;;30.63;11.68;;;17.20;99.90;;;;;;5031676;28;20056;-63
2021/03/04 11:56:24;;;;;;;34.60;11.77;;;17.50;99.90;;;;;;5031940;28;20021;-63
2021/03/04 11:58:50;;;;;;;30.30;12.00;;;17.70;99.90;;;;;;5035397;28;20033;-63
2021/03/04 12:01:17;;;;;;;40.78;12.68;;;17.30;99.90;;;;;;5031841;28;20103;-63
2021/03/04 12:03:42;;;;;;;26.00;11.07;;;17.60;99.90;;;;;;5033207;28;20104;-63
2021/03/04 12:06:08;;;;;;;24.88;11.10;;;17.40;99.90;;;;;;5042928;28;20084;-63
2021/03/04 12:08:34;;;;;;;27.73;11.38;;;17.60;99.90;;;;;;5048938;28;20046;-63
2021/03/04 12:10:59;;;;;;;24.73;11.20;;;17.80;99.90;;;;;;5042422;28;20025;-64
2021/03/04 12:13:31;;;;;;;29.23;11.70;;;18.20;99.90;;;;;;5050437;28;20121;-63
2021/03/04 12:16:07;;;;;;;28.33;11.35;;;17.70;99.90;;;;;;5036308;28;20461;-62
2021/03/04 12:18:36;;;;;;;24.60;11.13;;;17.80;99.90;;;;;;5032999;28;20017;-63
2021/03/04 12:21:02;;;;;;;32.08;11.35;;;18.20;99.90;;;;;;5041972;28;20029;-63
2021/03/04 12:23:29;;;;;;;25.88;10.75;;;18.10;99.90;;;;;;5049434;28;20033;-63
2021/03/04 12:25:55;;;;;;;33.13;10.68;;;17.60;99.90;;;;;;5035716;28;20034;-66
2021/03/04 12:28:21;;;;;;;26.40;11.55;;;18.30;99.90;;;;;;5031541;28;20524;-66
2021/03/04 12:30:46;;;;;;;30.02;10.50;;;18.60;99.90;;;;;;5034967;28;20129;-66
2021/03/04 12:33:12;;;;;;;24.23;10.60;;;18.30;99.90;;;;;;5031047;28;20544;-66
2021/03/04 12:35:39;;;;;;;27.27;10.93;;;17.80;99.90;;;;;;5043273;28;20032;-65
2021/03/04 12:38:05;;;;;;;40.85;14.23;;;18.00;99.90;;;;;;5031151;28;20079;-66